Time;durP1;ratioP1;P1;durP2;ratioP2;P2;SDS_P1;SDS_P2;PMS_P1;PMS_P2;Temp;Humidity;BMP_temperature;BMP_pressure;BME280_temperature;BME280_humidity;BME280_pressure;Samples;Min_cycle;Max_cycle;Signal;HPM_P1;HPM_P2
2024/02/10 00:01:46;;;;;;;50.67;27.25;;;5.50;99.90;;;;;;5011582;28;20108;-80
2024/02/10 00:04:20;;;;;;;51.05;29.58;;;5.50;99.90;;;;;;5011511;28;20029;-80
2024/02/10 00:06:46;;;;;;;56.60;29.58;;;5.50;99.90;;;;;;5079203;28;20056;-80
2024/02/10 00:09:14;;;;;;;52.78;28.52;;;5.50;99.90;;;;;;5079431;28;20126;-81
2024/02/10 00:11:41;;;;;;;46.35;26.00;;;5.50;99.90;;;;;;5011083;28;20006;-80
2024/02/10 00:14:10;;;;;;;50.80;27.65;;;5.60;99.90;;;;;;5011226;28;20018;-80
2024/02/10 00:16:36;;;;;;;46.38;25.17;;;5.50;99.90;;;;;;5079535;28;20391;-79
2024/02/10 00:19:09;;;;;;;43.50;25.98;;;5.50;99.90;;;;;;5011378;28;20093;-80
2024/02/10 00:21:35;;;;;;;46.92;26.42;;;5.50;99.90;;;;;;5078673;28;20114;-79
2024/02/10 00:24:02;;;;;;;46.90;24.35;;;5.50;99.90;;;;;;5066080;28;20022;-79
2024/02/10 00:26:27;;;;;;;43.58;24.85;;;5.60;99.90;;;;;;5078761;28;20029;-80
2024/02/10 00:28:55;;;;;;;44.78;24.58;;;5.60;99.90;;;;;;5078204;28;20554;-81
2024/02/10 00:31:25;;;;;;;38.13;21.45;;;5.60;99.90;;;;;;5079038;28;20019;-80
2024/02/10 00:33:56;;;;;;;42.22;23.63;;;5.60;99.90;;;;;;5078421;28;20022;-79
2024/02/10 00:36:22;;;;;;;45.85;24.13;;;5.60;99.90;;;;;;5042279;28;20019;-82
2024/02/10 00:38:50;;;;;;;35.60;22.35;;;5.60;99.90;;;;;;5005330;28;20128;-80
2024/02/10 00:41:20;;;;;;;37.28;22.00;;;5.60;99.90;;;;;;5045461;28;20549;-82
2024/02/10 00:43:46;;;;;;;40.13;23.95;;;5.60;99.90;;;;;;5010704;28;20022;-81
2024/02/10 00:46:15;;;;;;;45.90;25.35;;;5.60;99.90;;;;;;5078158;28;20018;-80
2024/02/10 00:48:42;;;;;;;43.38;23.80;;;5.60;99.90;;;;;;5078612;28;20034;-81
2024/02/10 00:51:09;;;;;;;40.63;22.60;;;5.60;99.90;;;;;;5078609;28;20365;-80
2024/02/10 00:53:42;;;;;;;43.08;24.13;;;5.60;99.90;;;;;;5008323;28;20075;-81
2024/02/10 00:56:09;;;;;;;38.40;21.35;;;5.60;99.90;;;;;;5059021;28;20029;-81
2024/02/10 00:58:40;;;;;;;51.53;25.30;;;5.60;99.90;;;;;;5007357;28;20019;-81
2024/02/10 01:01:09;;;;;;;49.67;27.17;;;5.60;99.90;;;;;;5078412;28;20025;-80
2024/02/10 01:03:37;;;;;;;42.72;23.10;;;5.60;99.90;;;;;;5079088;28;20109;-81
2024/02/10 01:06:05;;;;;;;39.08;22.10;;;5.60;99.90;;;;;;5078511;28;20457;-81
2024/02/10 01:08:30;;;;;;;39.50;24.08;;;5.60;99.90;;;;;;5079664;28;20535;-80
2024/02/10 01:10:57;;;;;;;48.03;24.15;;;5.60;99.90;;;;;;5078393;28;20026;-81
2024/02/10 01:13:25;;;;;;;49.05;23.83;;;5.70;99.90;;;;;;5010416;28;20034;-80
2024/02/10 01:15:54;;;;;;;37.28;22.42;;;5.70;99.90;;;;;;5078046;28;20018;-81
2024/02/10 01:18:20;;;;;;;43.55;24.50;;;5.60;99.90;;;;;;5077493;28;20026;-80
2024/02/10 01:20:46;;;;;;;39.83;23.38;;;5.70;99.90;;;;;;5078025;28;20150;-81
2024/02/10 01:23:12;;;;;;;43.25;24.33;;;5.70;99.90;;;;;;5077694;28;20025;-81
2024/02/10 01:25:37;;;;;;;36.92;23.23;;;5.70;99.90;;;;;;5072950;28;20018;-79
2024/02/10 01:28:03;;;;;;;40.75;23.83;;;5.70;99.90;;;;;;5002693;28;20029;-81
2024/02/10 01:30:29;;;;;;;48.22;30.88;;;5.80;99.90;;;;;;5077273;28;20091;-81
2024/02/10 01:32:57;;;;;;;55.55;33.25;;;5.80;99.90;;;;;;5077756;28;20102;-80
2024/02/10 01:35:24;;;;;;;48.65;28.52;;;5.80;99.90;;;;;;5010083;28;20538;-80
2024/02/10 01:37:50;;;;;;;43.72;26.67;;;5.80;99.90;;;;;;5077216;28;20050;-80
2024/02/10 01:40:16;;;;;;;54.97;29.33;;;5.90;99.90;;;;;;5093060;28;20390;-80
2024/02/10 01:42:44;;;;;;;52.63;29.10;;;5.90;99.90;;;;;;5077465;28;20116;-79
2024/02/10 01:45:14;;;;;;;43.70;25.25;;;5.90;99.90;;;;;;5077822;28;20564;-79
2024/02/10 01:47:42;;;;;;;36.35;22.15;;;5.90;99.90;;;;;;5077495;28;20042;-81
2024/02/10 01:50:09;;;;;;;37.05;21.08;;;5.90;99.90;;;;;;4998198;28;20030;-80
2024/02/10 01:52:39;;;;;;;36.80;21.83;;;5.90;99.90;;;;;;5077441;28;20022;-81
2024/02/10 01:55:06;;;;;;;35.90;20.52;;;5.90;99.90;;;;;;5075939;28;20019;-81
2024/02/10 01:57:33;;;;;;;40.28;22.88;;;5.90;99.90;;;;;;5077571;28;20044;-79
2024/02/10 02:00:01;;;;;;;41.40;22.10;;;6.00;99.90;;;;;;5077244;28;20436;-79
2024/02/10 02:02:30;;;;;;;35.42;20.98;;;5.90;99.90;;;;;;5078298;28;20101;-80
2024/02/10 02:04:58;;;;;;;34.15;21.30;;;6.00;99.90;;;;;;5004572;28;20022;-81
2024/02/10 02:07:24;;;;;;;38.15;20.92;;;6.00;99.90;;;;;;5010031;28;20063;-82
2024/02/10 02:09:49;;;;;;;34.20;21.35;;;6.00;99.90;;;;;;5075226;28;20460;-80
2024/02/10 02:12:15;;;;;;;33.30;20.13;;;6.00;99.90;;;;;;5060524;28;20560;-80
2024/02/10 02:14:43;;;;;;;34.38;20.90;;;6.00;99.90;;;;;;5077348;28;20018;-80
2024/02/10 02:17:09;;;;;;;42.22;22.00;;;6.10;99.90;;;;;;5077183;28;20022;-81
2024/02/10 02:19:40;;;;;;;35.47;20.48;;;6.10;99.90;;;;;;5077291;28;20146;-81
2024/02/10 02:22:08;;;;;;;34.63;19.92;;;6.10;99.90;;;;;;5077431;28;20019;-82
2024/02/10 02:24:34;;;;;;;33.30;19.00;;;6.10;99.90;;;;;;5077993;28;20022;-79
2024/02/10 02:27:00;;;;;;;36.63;18.98;;;6.20;99.90;;;;;;5077347;28;20026;-81
2024/02/10 02:29:26;;;;;;;38.17;20.08;;;6.20;99.90;;;;;;5092857;28;20052;-80
2024/02/10 02:31:59;;;;;;;29.08;18.50;;;6.20;99.90;;;;;;5077137;28;20029;-79
2024/02/10 02:34:28;;;;;;;31.27;19.48;;;6.20;99.90;;;;;;5076983;28;20022;-81
2024/02/10 02:36:54;;;;;;;32.00;19.45;;;6.20;99.90;;;;;;5009588;28;20053;-79
2024/02/10 02:39:20;;;;;;;33.92;18.20;;;6.20;99.90;;;;;;5081923;28;20077;-80
2024/02/10 02:41:46;;;;;;;34.97;18.42;;;6.20;99.90;;;;;;5091544;28;20028;-80
2024/02/10 02:44:15;;;;;;;34.00;18.60;;;6.30;99.90;;;;;;5012703;28;20407;-82
2024/02/10 02:46:42;;;;;;;32.83;18.73;;;6.30;99.90;;;;;;5079339;28;20025;-81
2024/02/10 02:49:08;;;;;;;38.42;20.50;;;6.30;99.90;;;;;;5012853;28;20083;-80
2024/02/10 02:51:35;;;;;;;33.13;20.15;;;6.30;99.90;;;;;;5080572;28;20018;-81
2024/02/10 02:54:01;;;;;;;28.27;18.02;;;6.40;99.90;;;;;;5079629;28;20060;-79
2024/02/10 02:56:27;;;;;;;27.63;15.80;;;6.40;99.90;;;;;;5004805;28;20018;-80
2024/02/10 02:58:55;;;;;;;32.05;17.55;;;6.40;99.90;;;;;;5012728;28;20079;-81
2024/02/10 03:01:22;;;;;;;30.10;15.00;;;6.50;99.90;;;;;;5012821;28;20421;-80
2024/02/10 03:03:50;;;;;;;31.15;21.45;;;6.50;99.90;;;;;;5009872;28;20022;-80
2024/02/10 03:06:20;;;;;;;63.03;38.30;;;6.50;99.90;;;;;;5080544;28;20026;-80
2024/02/10 03:08:47;;;;;;;97.82;58.35;;;6.50;99.90;;;;;;5012203;28;20087;-80
2024/02/10 03:11:19;;;;;;;58.40;34.90;;;6.50;99.90;;;;;;5012508;28;20026;-82
2024/02/10 03:13:48;;;;;;;52.05;29.63;;;6.50;99.90;;;;;;5081028;28;20048;-81
2024/02/10 03:16:17;;;;;;;35.58;19.75;;;6.50;99.90;;;;;;5080630;28;20022;-81
2024/02/10 03:18:45;;;;;;;36.25;20.80;;;6.50;99.90;;;;;;5012396;28;20035;-80
2024/02/10 03:21:21;;;;;;;30.20;17.33;;;6.50;99.90;;;;;;5080440;28;20026;-81
2024/02/10 03:23:47;;;;;;;24.30;14.18;;;6.50;99.90;;;;;;5097192;28;20029;-82
2024/02/10 03:26:12;;;;;;;20.25;13.27;;;6.50;99.90;;;;;;5011852;28;20022;-81
2024/02/10 03:28:38;;;;;;;23.88;14.57;;;6.50;99.90;;;;;;5080930;28;20044;-81
2024/02/10 03:31:04;;;;;;;23.02;13.68;;;6.50;99.90;;;;;;5012246;28;20475;-81
2024/02/10 03:33:32;;;;;;;18.92;13.30;;;6.50;99.90;;;;;;5010984;28;20037;-81
2024/02/10 03:36:02;;;;;;;19.90;12.55;;;6.50;99.90;;;;;;5081009;28;20033;-80
2024/02/10 03:38:28;;;;;;;23.50;11.80;;;6.50;99.90;;;;;;5080066;28;20046;-80
2024/02/10 03:40:54;;;;;;;20.17;12.57;;;6.50;99.90;;;;;;5011981;28;20067;-81
2024/02/10 03:43:27;;;;;;;24.00;12.65;;;6.50;99.90;;;;;;5012313;28;20029;-81
2024/02/10 03:45:54;;;;;;;22.02;12.20;;;6.50;99.90;;;;;;5000200;28;20026;-82
2024/02/10 03:48:20;;;;;;;19.67;11.93;;;6.50;99.90;;;;;;5074959;28;20473;-82
2024/02/10 03:50:46;;;;;;;23.70;13.23;;;6.50;99.90;;;;;;5079323;28;20177;-82
2024/02/10 03:53:12;;;;;;;22.63;12.48;;;6.50;99.90;;;;;;5011617;28;20421;-81
2024/02/10 03:55:38;;;;;;;19.75;12.70;;;6.50;99.90;;;;;;5011086;28;20046;-81
2024/02/10 03:58:05;;;;;;;19.10;12.75;;;6.50;99.90;;;;;;5011630;28;20022;-82
2024/02/10 04:00:36;;;;;;;22.02;14.15;;;6.50;99.90;;;;;;5079819;28;20022;-81
2024/02/10 04:03:02;;;;;;;22.52;14.38;;;6.50;99.90;;;;;;5000821;28;20101;-81
2024/02/10 04:05:33;;;;;;;26.38;13.88;;;6.50;99.90;;;;;;5080246;28;20141;-81
2024/02/10 04:07:59;;;;;;;23.52;13.40;;;6.50;99.90;;;;;;5079487;28;20125;-80
2024/02/10 04:10:24;;;;;;;25.90;14.25;;;6.50;99.90;;;;;;5009712;28;20113;-80
2024/02/10 04:12:50;;;;;;;23.10;14.68;;;6.50;99.90;;;;;;5079246;28;20014;-80
2024/02/10 04:15:16;;;;;;;27.25;14.95;;;6.40;99.90;;;;;;5011504;28;20018;-81
2024/02/10 04:17:48;;;;;;;25.60;14.23;;;6.40;99.90;;;;;;4998633;28;20022;-80
2024/02/10 04:20:15;;;;;;;;;;;6.40;99.90;;;;;;5080018;28;20033;-81
2024/02/10 04:22:45;;;;;;;23.02;13.93;;;6.40;99.90;;;;;;5078871;28;19950;-80
2024/02/10 04:25:12;;;;;;;23.48;14.75;;;6.40;99.90;;;;;;5079540;28;20047;-80
2024/02/10 04:27:38;;;;;;;25.15;14.98;;;6.40;99.90;;;;;;5077782;28;20018;-80
2024/02/10 04:30:04;;;;;;;37.35;21.70;;;6.40;99.90;;;;;;5011677;28;20014;-81
2024/02/10 04:32:31;;;;;;;42.83;26.40;;;6.40;99.90;;;;;;5078677;28;20026;-80
2024/02/10 04:34:56;;;;;;;34.72;20.33;;;6.50;99.90;;;;;;5009309;28;20375;-81
2024/02/10 04:37:22;;;;;;;24.70;17.05;;;6.40;99.90;;;;;;5010852;28;20026;-81
2024/02/10 04:39:48;;;;;;;27.40;16.15;;;6.40;99.90;;;;;;5011360;28;20080;-79
2024/02/10 04:42:15;;;;;;;26.73;15.95;;;6.40;99.90;;;;;;5079624;28;20025;-80
2024/02/10 04:44:41;;;;;;;24.75;15.48;;;6.40;99.90;;;;;;5080473;28;20571;-80
2024/02/10 04:47:07;;;;;;;23.98;13.70;;;6.40;99.90;;;;;;5078767;28;20109;-80
2024/02/10 04:49:35;;;;;;;28.73;15.15;;;6.40;99.90;;;;;;5011163;28;20121;-80
2024/02/10 04:52:01;;;;;;;22.85;15.07;;;6.40;99.90;;;;;;5010937;28;20046;-81
2024/02/10 04:54:27;;;;;;;24.00;14.45;;;6.50;99.90;;;;;;5080051;28;20018;-81
2024/02/10 04:56:53;;;;;;;24.92;15.15;;;6.40;99.90;;;;;;5064656;28;20467;-81
2024/02/10 04:59:26;;;;;;;27.58;16.38;;;6.40;99.90;;;;;;5010891;28;20072;-82
2024/02/10 05:01:52;;;;;;;29.55;16.70;;;6.50;99.90;;;;;;5076873;28;20125;-82
2024/02/10 05:04:18;;;;;;;21.35;12.80;;;6.40;99.90;;;;;;5078441;28;20082;-81
2024/02/10 05:06:43;;;;;;;22.45;13.00;;;6.40;99.90;;;;;;5078072;28;20018;-81
2024/02/10 05:09:11;;;;;;;22.00;13.80;;;6.50;99.90;;;;;;5010792;28;20055;-80
2024/02/10 05:11:37;;;;;;;21.67;15.40;;;6.50;99.90;;;;;;5077932;28;20083;-81
2024/02/10 05:14:04;;;;;;;22.83;14.18;;;6.50;99.90;;;;;;5078619;28;20032;-81
2024/02/10 05:16:30;;;;;;;22.98;14.20;;;6.50;99.90;;;;;;5010946;28;20029;-80
2024/02/10 05:18:56;;;;;;;20.90;13.23;;;6.50;99.90;;;;;;5078182;28;20020;-80
2024/02/10 05:21:24;;;;;;;20.67;12.85;;;6.40;99.90;;;;;;5010311;28;20022;-81
2024/02/10 05:23:50;;;;;;;22.05;12.88;;;6.40;99.90;;;;;;5078181;28;20018;-81
2024/02/10 05:26:17;;;;;;;26.05;13.77;;;6.50;99.90;;;;;;5000546;28;20113;-80
2024/02/10 05:28:43;;;;;;;18.85;12.55;;;6.40;99.90;;;;;;5077920;28;20129;-81
2024/02/10 05:31:11;;;;;;;21.27;12.55;;;6.50;99.90;;;;;;5010191;28;20026;-81
2024/02/10 05:33:42;;;;;;;21.63;13.23;;;6.40;99.90;;;;;;5077994;28;20026;-80
2024/02/10 05:36:10;;;;;;;19.08;11.18;;;6.50;99.90;;;;;;5094611;28;20010;-80
2024/02/10 05:38:39;;;;;;;20.40;12.48;;;6.40;99.90;;;;;;5077861;28;20057;-80
2024/02/10 05:41:05;;;;;;;16.60;11.15;;;6.50;99.90;;;;;;5077954;28;20075;-81
2024/02/10 05:43:34;;;;;;;17.10;11.00;;;6.50;99.90;;;;;;5083302;28;20480;-81
2024/02/10 05:46:06;;;;;;;16.77;10.40;;;6.50;99.90;;;;;;5078258;28;20109;-81
2024/02/10 05:48:32;;;;;;;14.90;9.25;;;6.50;99.90;;;;;;5077609;28;20030;-81
2024/02/10 05:50:59;;;;;;;14.93;10.38;;;6.50;99.90;;;;;;5010296;28;20023;-81
2024/02/10 05:53:26;;;;;;;19.20;11.23;;;6.50;99.90;;;;;;5076315;28;20026;-80
2024/02/10 05:55:52;;;;;;;20.38;10.75;;;6.60;99.90;;;;;;5065282;28;20449;-81
2024/02/10 05:58:22;;;;;;;18.73;11.13;;;6.60;99.90;;;;;;5077798;28;20018;-80
2024/02/10 06:00:49;;;;;;;16.52;10.05;;;6.50;99.90;;;;;;5077661;28;20026;-80
2024/02/10 06:03:15;;;;;;;15.82;9.45;;;6.50;99.90;;;;;;5093982;28;20034;-79
2024/02/10 06:05:41;;;;;;;16.40;9.98;;;6.50;99.90;;;;;;5009950;28;20029;-79
2024/02/10 06:08:11;;;;;;;16.73;10.55;;;6.60;99.90;;;;;;5009964;28;20069;-81
2024/02/10 06:10:38;;;;;;;23.35;11.90;;;6.60;99.90;;;;;;5077419;28;20125;-81
2024/02/10 06:13:04;;;;;;;21.10;12.75;;;6.50;99.90;;;;;;5011557;28;20479;-80
2024/02/10 06:15:29;;;;;;;19.38;12.43;;;6.60;99.90;;;;;;5081565;28;20029;-81
2024/02/10 06:17:56;;;;;;;19.15;10.57;;;6.50;99.90;;;;;;5084675;28;20101;-80
2024/02/10 06:20:23;;;;;;;13.68;9.32;;;6.50;99.90;;;;;;5081899;28;20060;-80
2024/02/10 06:22:51;;;;;;;17.45;9.93;;;6.50;99.90;;;;;;5081353;28;20029;-80
2024/02/10 06:25:22;;;;;;;16.85;11.40;;;6.50;99.90;;;;;;5081507;28;20041;-82
2024/02/10 06:27:58;;;;;;;17.27;10.65;;;6.50;99.90;;;;;;5080830;28;20036;-79
2024/02/10 06:30:28;;;;;;;19.05;10.60;;;6.60;99.90;;;;;;5002065;28;20023;-80
2024/02/10 06:32:58;;;;;;;17.35;10.30;;;6.60;99.90;;;;;;5009525;28;20387;-80
2024/02/10 06:35:24;;;;;;;15.40;9.63;;;6.60;99.90;;;;;;5079695;28;20526;-80
2024/02/10 06:37:49;;;;;;;15.68;10.60;;;6.60;99.90;;;;;;5005421;28;20054;-80
2024/02/10 06:40:16;;;;;;;14.63;9.70;;;6.60;99.90;;;;;;5076276;28;20025;-80
2024/02/10 06:42:46;;;;;;;13.73;8.02;;;6.60;99.90;;;;;;5052254;28;20014;-79
2024/02/10 06:45:14;;;;;;;13.32;9.25;;;6.60;99.90;;;;;;5081196;28;20046;-80
2024/02/10 06:47:47;;;;;;;14.32;9.73;;;6.70;99.90;;;;;;5085819;28;20018;-79
2024/02/10 06:50:14;;;;;;;12.50;8.85;;;6.70;99.90;;;;;;5076518;28;20056;-79
2024/02/10 06:52:41;;;;;;;11.10;8.25;;;6.70;99.90;;;;;;5067626;28;20026;-80
2024/02/10 06:55:07;;;;;;;13.52;8.50;;;6.70;99.90;;;;;;5008863;28;20395;-80
2024/02/10 06:57:41;;;;;;;12.90;7.97;;;6.70;99.90;;;;;;5003875;28;20041;-79
2024/02/10 07:00:15;;;;;;;12.90;8.40;;;6.70;99.90;;;;;;5009497;28;20405;-79
2024/02/10 07:02:44;;;;;;;11.50;8.40;;;6.70;99.90;;;;;;5012335;28;20030;-80
2024/02/10 07:05:12;;;;;;;10.85;7.47;;;6.80;99.90;;;;;;5080626;28;20033;-79
2024/02/10 07:07:41;;;;;;;10.38;8.10;;;6.80;99.90;;;;;;5011769;28;20068;-80
2024/02/10 07:10:13;;;;;;;14.70;8.40;;;6.80;99.90;;;;;;5080309;28;20025;-79
2024/02/10 07:12:43;;;;;;;13.43;8.10;;;6.80;99.90;;;;;;5067630;28;20084;-79
2024/02/10 07:15:12;;;;;;;14.60;9.52;;;6.80;99.90;;;;;;5001049;28;20365;-79
2024/02/10 07:17:43;;;;;;;12.10;9.27;;;6.90;99.90;;;;;;5075917;28;20095;-80
2024/02/10 07:20:20;;;;;;;11.85;7.90;;;6.90;99.90;;;;;;5068441;28;20024;-80
2024/02/10 07:22:56;;;;;;;12.63;7.90;;;6.90;99.90;;;;;;4997760;28;20113;-81
2024/02/10 07:25:29;;;;;;;9.60;7.07;;;6.90;99.90;;;;;;5007554;28;20025;-81
2024/02/10 07:28:00;;;;;;;12.27;7.32;;;6.90;99.90;;;;;;4995301;28;20070;-80
2024/02/10 07:30:27;;;;;;;11.30;6.95;;;6.90;99.90;;;;;;5072519;28;20026;-80
2024/02/10 07:32:52;;;;;;;11.27;7.82;;;6.90;99.90;;;;;;5006652;28;20022;-80
2024/02/10 07:35:21;;;;;;;11.00;7.90;;;7.00;99.90;;;;;;5008956;28;20062;-80
2024/02/10 07:37:48;;;;;;;10.73;6.95;;;7.00;99.90;;;;;;5008467;28;20045;-80
2024/02/10 07:40:14;;;;;;;9.40;6.57;;;7.00;99.90;;;;;;5079402;28;20026;-81
2024/02/10 07:42:40;;;;;;;8.50;6.78;;;7.10;99.90;;;;;;5077299;28;20037;-80
2024/02/10 07:45:07;;;;;;;12.95;7.93;;;7.10;99.90;;;;;;5005464;28;20101;-80
2024/02/10 07:47:32;;;;;;;13.70;7.78;;;7.10;99.90;;;;;;5002944;28;20032;-80
2024/02/10 07:49:59;;;;;;;11.98;8.65;;;7.20;99.90;;;;;;4999041;28;20114;-80
2024/02/10 07:52:30;;;;;;;12.02;7.28;;;7.20;99.90;;;;;;5006509;28;20026;-80
2024/02/10 07:54:59;;;;;;;9.25;7.10;;;7.20;99.90;;;;;;5072679;28;20391;-80
2024/02/10 07:57:25;;;;;;;9.90;7.03;;;7.20;99.90;;;;;;4995234;28;20064;-80
2024/02/10 07:59:56;;;;;;;9.70;7.30;;;7.30;99.90;;;;;;5073849;28;20113;-80
2024/02/10 08:02:25;;;;;;;12.57;7.85;;;7.30;99.90;;;;;;5055593;28;20018;-80
2024/02/10 08:04:54;;;;;;;11.75;7.72;;;7.30;99.90;;;;;;5064306;28;20022;-81
2024/02/10 08:07:21;;;;;;;11.35;7.75;;;7.30;99.90;;;;;;4991755;28;20459;-80
2024/02/10 08:09:47;;;;;;;14.13;8.82;;;7.40;99.90;;;;;;5065279;28;20121;-80
2024/02/10 08:12:22;;;;;;;11.95;8.27;;;7.40;99.90;;;;;;5080038;28;20026;-80
2024/02/10 08:14:52;;;;;;;11.95;7.70;;;7.40;99.90;;;;;;4995571;28;20049;-79
2024/02/10 08:17:22;;;;;;;12.77;8.18;;;7.40;99.90;;;;;;4995992;28;20069;-79
2024/02/10 08:19:51;;;;;;;8.43;6.30;;;7.50;99.90;;;;;;5080563;28;20034;-80
2024/02/10 08:22:21;;;;;;;10.40;6.55;;;7.50;99.90;;;;;;5074017;28;20173;-79
2024/02/10 08:24:47;;;;;;;10.13;6.38;;;7.50;99.90;;;;;;5093670;28;20059;-79
2024/02/10 08:27:18;;;;;;;8.43;6.07;;;7.50;99.90;;;;;;5009712;28;20022;-80
2024/02/10 08:29:45;;;;;;;12.43;7.93;;;7.50;99.90;;;;;;5068784;28;20039;-80
2024/02/10 08:32:13;;;;;;;9.98;6.50;;;7.50;99.90;;;;;;4995535;28;20022;-82
2024/02/10 08:34:42;;;;;;;8.43;6.10;;;7.50;99.90;;;;;;4993017;28;20018;-80
2024/02/10 08:37:09;;;;;;;8.73;6.55;;;7.50;99.90;;;;;;5008541;28;20464;-80
2024/02/10 08:39:36;;;;;;;8.63;6.70;;;7.50;99.90;;;;;;4963310;28;20566;-81
2024/02/10 08:42:05;;;;;;;10.02;6.38;;;7.60;99.90;;;;;;4964006;28;20031;-80
2024/02/10 08:44:32;;;;;;;10.50;6.35;;;7.60;99.90;;;;;;4967706;28;20485;-80
2024/02/10 08:46:59;;;;;;;11.40;5.57;;;7.60;99.90;;;;;;4965080;28;20481;-80
2024/02/10 08:49:26;;;;;;;10.20;6.47;;;7.60;99.90;;;;;;4967045;28;20051;-81
2024/02/10 08:51:53;;;;;;;10.85;7.35;;;7.70;99.90;;;;;;4965626;28;20076;-82
2024/02/10 08:54:19;;;;;;;8.98;6.55;;;7.70;99.90;;;;;;4970742;28;20551;-80
2024/02/10 08:56:45;;;;;;;8.30;6.50;;;7.70;99.90;;;;;;4971063;28;20035;-79
2024/02/10 08:59:12;;;;;;;9.70;6.32;;;7.80;99.90;;;;;;5031820;28;20027;-80
2024/02/10 09:01:42;;;;;;;9.82;6.35;;;7.90;99.90;;;;;;4981774;28;20029;-80
2024/02/10 09:04:11;;;;;;;5.85;4.85;;;7.90;99.90;;;;;;4959930;28;20092;-80
2024/02/10 09:06:37;;;;;;;7.88;5.60;;;7.90;99.90;;;;;;4983477;28;20030;-80
2024/02/10 09:09:10;;;;;;;7.90;5.88;;;8.00;99.90;;;;;;4967009;28;20035;-80
2024/02/10 09:11:41;;;;;;;7.03;5.72;;;8.10;99.90;;;;;;4957348;28;20022;-80
2024/02/10 09:14:07;;;;;;;8.32;5.75;;;8.20;99.90;;;;;;4969292;28;20072;-80
2024/02/10 09:16:33;;;;;;;8.63;6.03;;;8.30;99.90;;;;;;4970867;28;20027;-79
2024/02/10 09:19:01;;;;;;;7.82;6.25;;;8.30;99.90;;;;;;4971123;28;20054;-80
2024/02/10 09:21:27;;;;;;;8.32;5.72;;;8.40;99.90;;;;;;4970393;28;20026;-80
2024/02/10 09:23:52;;;;;;;8.80;6.88;;;8.50;99.90;;;;;;4967855;28;20031;-80
2024/02/10 09:26:20;;;;;;;8.93;5.53;;;8.50;99.90;;;;;;4957443;28;20041;-80
2024/02/10 09:28:46;;;;;;;6.95;5.68;;;8.60;99.90;;;;;;4952013;28;20035;-79
2024/02/10 09:31:16;;;;;;;5.78;5.07;;;8.70;99.90;;;;;;4958187;28;20020;-79
2024/02/10 09:33:42;;;;;;;8.23;6.00;;;8.70;99.90;;;;;;4964193;28;20046;-77
2024/02/10 09:36:11;;;;;;;7.43;5.68;;;8.80;99.90;;;;;;4960484;28;20089;-78
2024/02/10 09:38:38;;;;;;;8.15;6.15;;;8.80;99.90;;;;;;4992457;28;20103;-78
2024/02/10 09:41:07;;;;;;;8.60;5.82;;;8.90;99.90;;;;;;5000437;28;20033;-78
2024/02/10 09:43:36;;;;;;;9.85;5.43;;;8.90;99.90;;;;;;5074046;28;20040;-78
2024/02/10 09:46:06;;;;;;;7.10;5.10;;;8.90;99.90;;;;;;4988956;28;20031;-79
2024/02/10 09:48:38;;;;;;;9.43;6.50;;;9.00;99.90;;;;;;5074485;28;20634;-82
2024/02/10 09:51:04;;;;;;;19.20;10.43;;;9.10;99.90;;;;;;5071490;28;20025;-81
2024/02/10 09:53:30;;;;;;;12.18;7.63;;;9.10;99.90;;;;;;5073787;28;20018;-79
2024/02/10 09:55:56;;;;;;;9.95;6.32;;;9.10;99.90;;;;;;5007712;28;20711;-81
2024/02/10 09:58:28;;;;;;;9.35;5.55;;;9.20;99.90;;;;;;4994482;28;20109;-79
2024/02/10 10:00:55;;;;;;;9.00;5.32;;;9.20;99.90;;;;;;4998321;28;20045;-81
2024/02/10 10:03:21;;;;;;;9.75;5.28;;;9.30;99.90;;;;;;5076955;28;20056;-82
2024/02/10 10:05:49;;;;;;;7.72;5.45;;;9.40;99.90;;;;;;5008813;28;20022;-83
2024/02/10 10:08:18;;;;;;;8.32;5.60;;;9.40;99.90;;;;;;5069168;28;20125;-83
2024/02/10 10:10:44;;;;;;;8.77;6.00;;;9.60;99.90;;;;;;5075420;28;20378;-80
2024/02/10 10:13:09;;;;;;;11.77;7.70;;;9.60;99.90;;;;;;5065096;28;20033;-84
2024/02/10 10:15:38;;;;;;;10.73;6.88;;;9.70;99.90;;;;;;5009799;28;20029;-80
2024/02/10 10:18:19;;;;;;;12.32;6.88;;;9.80;99.90;;;;;;5007106;28;20026;-79
2024/02/10 10:20:46;;;;;;;12.02;6.72;;;10.00;99.90;;;;;;5073654;28;20383;-81
2024/02/10 10:23:15;;;;;;;7.32;5.80;;;10.10;99.90;;;;;;4990507;28;20030;-80
2024/02/10 10:25:45;;;;;;;10.80;7.25;;;10.10;99.90;;;;;;5006568;28;20091;-80
2024/02/10 10:28:16;;;;;;;11.05;6.43;;;10.20;99.90;;;;;;5006718;28;20058;-82
2024/02/10 10:30:46;;;;;;;11.40;7.28;;;10.20;99.90;;;;;;4993608;28;20053;-81
2024/02/10 10:33:13;;;;;;;14.43;8.18;;;10.30;99.90;;;;;;4996175;28;20511;-80
2024/02/10 10:35:44;;;;;;;15.13;7.95;;;10.30;99.90;;;;;;5008189;28;20026;-80
2024/02/10 10:38:11;;;;;;;13.00;7.07;;;10.30;99.90;;;;;;5008477;28;20545;-80
2024/02/10 10:40:38;;;;;;;15.00;7.97;;;10.40;99.90;;;;;;5008076;28;20057;-79
2024/02/10 10:43:10;;;;;;;13.68;9.10;;;10.50;99.90;;;;;;5074835;28;20421;-80
2024/02/10 10:45:39;;;;;;;11.55;6.57;;;10.60;99.90;;;;;;4992750;28;20018;-80
2024/02/10 10:48:07;;;;;;;9.38;5.35;;;10.60;99.90;;;;;;4998122;28;20034;-80
2024/02/10 10:50:34;;;;;;;11.13;5.93;;;10.60;99.90;;;;;;5075997;28;20113;-80
2024/02/10 10:53:11;;;;;;;13.30;7.75;;;10.60;99.90;;;;;;5088718;28;20129;-79
2024/02/10 10:55:45;;;;;;;16.15;9.35;;;10.70;99.90;;;;;;5075719;28;20490;-79
2024/02/10 10:58:16;;;;;;;8.02;5.18;;;10.70;99.90;;;;;;5004033;28;20530;-79
2024/02/10 11:00:45;;;;;;;12.70;7.20;;;10.80;99.90;;;;;;5010891;28;20521;-79
2024/02/10 11:03:15;;;;;;;12.32;7.30;;;10.90;99.90;;;;;;5075383;28;20420;-78
2024/02/10 11:05:42;;;;;;;13.43;7.88;;;10.90;99.90;;;;;;5082030;28;20473;-79
2024/02/10 11:08:13;;;;;;;14.90;7.57;;;11.10;99.90;;;;;;5085132;28;20169;-79
2024/02/10 11:10:48;;;;;;;11.88;6.22;;;11.10;99.90;;;;;;5088302;28;20074;-79
2024/02/10 11:13:27;;;;;;;7.28;5.13;;;11.10;99.90;;;;;;5084639;28;20025;-79
2024/02/10 11:16:05;;;;;;;13.48;7.18;;;11.10;99.90;;;;;;5004368;28;20030;-78
2024/02/10 11:18:34;;;;;;;10.77;6.25;;;11.20;99.90;;;;;;5071876;28;20045;-79
2024/02/10 11:21:18;;;;;;;12.00;6.32;;;11.30;99.90;;;;;;5012247;28;20026;-79
2024/02/10 11:24:05;;;;;;;10.68;6.38;;;11.40;99.90;;;;;;5008538;28;20018;-79
2024/02/10 11:26:33;;;;;;;9.73;6.32;;;11.50;99.90;;;;;;5008106;28;20021;-79
2024/02/10 11:29:06;;;;;;;14.00;8.15;;;11.60;99.90;;;;;;5006240;28;20109;-78
2024/02/10 11:31:39;;;;;;;12.15;6.90;;;11.70;99.90;;;;;;5010289;28;20111;-79
2024/02/10 11:34:14;;;;;;;7.70;4.60;;;11.60;99.90;;;;;;5011528;28;20026;-78
2024/02/10 11:36:54;;;;;;;6.65;4.63;;;11.60;99.90;;;;;;5088175;28;20096;-79
2024/02/10 11:39:22;;;;;;;9.15;5.55;;;11.60;99.90;;;;;;5002009;28;20046;-80
2024/02/10 11:41:48;;;;;;;7.40;5.35;;;11.60;99.90;;;;;;5004308;28;20034;-79
2024/02/10 11:44:17;;;;;;;8.07;4.68;;;11.60;99.90;;;;;;4996791;28;20038;-79
2024/02/10 11:46:43;;;;;;;7.85;4.65;;;11.60;99.90;;;;;;5077552;28;20061;-79
2024/02/10 11:49:11;;;;;;;10.27;4.78;;;11.70;99.90;;;;;;5077663;28;20054;-79
2024/02/10 11:51:37;;;;;;;12.93;7.82;;;11.80;99.90;;;;;;5066644;28;20361;-79
2024/02/10 11:54:03;;;;;;;19.67;18.50;;;11.90;99.90;;;;;;5000203;28;20494;-81
2024/02/10 11:56:33;;;;;;;7.78;4.60;;;12.00;99.90;;;;;;5011044;28;20030;-79
2024/02/10 11:59:00;;;;;;;8.65;4.15;;;11.90;99.90;;;;;;5067121;28;20021;-81
2024/02/10 12:01:27;;;;;;;7.47;4.28;;;11.80;99.90;;;;;;5002489;28;20019;-80
2024/02/10 12:03:53;;;;;;;9.20;5.07;;;11.80;99.90;;;;;;5002258;28;20511;-80
2024/02/10 12:06:21;;;;;;;10.73;4.50;;;11.70;99.90;;;;;;4993247;28;20058;-80
2024/02/10 12:08:49;;;;;;;5.75;3.95;;;11.70;99.90;;;;;;5006168;28;20030;-79
2024/02/10 12:11:16;;;;;;;17.85;7.07;;;11.70;99.90;;;;;;5074710;28;20028;-80
2024/02/10 12:13:42;;;;;;;19.20;9.32;;;11.70;99.90;;;;;;5004791;28;20031;-79
2024/02/10 12:16:11;;;;;;;11.15;4.70;;;11.60;99.90;;;;;;5067110;28;20027;-81
2024/02/10 12:18:41;;;;;;;8.57;4.43;;;11.60;99.90;;;;;;5006431;28;20036;-79
2024/02/10 12:21:06;;;;;;;11.07;5.00;;;11.60;99.90;;;;;;5003075;28;20034;-79
2024/02/10 12:23:32;;;;;;;8.57;5.63;;;11.60;99.90;;;;;;4991843;28;20041;-79
2024/02/10 12:26:02;;;;;;;10.07;6.05;;;11.60;99.90;;;;;;4993507;28;20095;-79
2024/02/10 12:28:32;;;;;;;8.25;4.90;;;11.60;99.90;;;;;;5004627;28;20038;-80
2024/02/10 12:30:57;;;;;;;9.75;4.50;;;11.50;99.90;;;;;;5064464;28;20018;-79
2024/02/10 12:33:24;;;;;;;7.40;4.32;;;11.60;99.90;;;;;;5000192;28;20414;-80
2024/02/10 12:35:53;;;;;;;5.13;3.80;;;11.60;99.90;;;;;;5069477;28;20105;-79
2024/02/10 12:38:20;;;;;;;6.90;4.35;;;11.60;99.90;;;;;;5070683;28;20046;-79
2024/02/10 12:40:45;;;;;;;8.13;4.50;;;11.60;99.90;;;;;;5077834;28;20034;-79
2024/02/10 12:43:13;;;;;;;7.15;4.00;;;11.60;99.90;;;;;;5004152;28;20130;-79
2024/02/10 12:45:42;;;;;;;10.68;4.75;;;11.60;99.90;;;;;;4997409;28;20834;-81
2024/02/10 12:48:08;;;;;;;8.10;3.72;;;11.60;99.90;;;;;;5003117;28;20510;-80